CheckWX is a tool to help pilots better visualize weather data.  It is not intended as a substitute for an official pre-flight weather briefing.

08:05:34 UTC

MYGF TAF
Grand Bahama International Airport
Freeport, Bahamas
TAF MYGF 190430Z 1906/2006 03015KT 9000 RA FEW018CB SCT020 BKN070 BKN120 BECMG 1912/1914 04015G25KT PROB40 TEMPO 1915/1919 5000 TSRA SCT015CB BKN018

Mar-19@
06:00 UTC

Mar-19 @ 06:00 UTC

Mar-19@
12:00 UTC

Mar-19 @ 12:00 UTC

TAF MYGF 190430Z 1906/2006 03015KT 9000 RA FEW018CB SCT020 BKN070 BKN120
Wind
  • 030° at 15 KTS
Conditions
Rain
Cloud Levels
  • Few at 1,800' AGL
  • Scattered at 2,000' AGL
  • Broken at 7,000' AGL

Mar-19@
12:00 UTC

Mar-19 @ 12:00 UTC

Mar-20@
06:00 UTC

Mar-20 @ 06:00 UTC

BECMG 1912/1914 04015G25KT

Becoming

Becoming Conditions expected by Tue, Mar 19, 2019 @ 14:00 UTC

Wind
  • 040° at 15 KTS
  • {Gusting to 25 KTS
Conditions
Rain
Cloud Levels
  • Few at 1,800' AGL
  • Scattered at 2,000' AGL
  • Broken at 7,000' AGL

Mar-19@
15:00 UTC

Mar-19 @ 15:00 UTC

Mar-19@
19:00 UTC

Mar-19 @ 19:00 UTC

PROB40 TEMPO 1915/1919 5000 TSRA SCT015CB BKN018

Temporary - 40% Likelihood

Temporary - 40% Likelihood during this time.

Conditions
Thunderstorm, Rain
Cloud Levels
  • Scattered at 1,500' AGL
  • Broken at 1,800' AGL